sensor_id;sensor_type;location;lat;lon;timestamp;P1;durP1;ratioP1;P2;durP2;ratioP2
4634;SDS011;2330;48.158;11.816;2022-12-11T00:02:03;25.27;;;22.92;;
4634;SDS011;2330;48.158;11.816;2022-12-11T00:04:30;26.27;;;23.77;;
4634;SDS011;2330;48.158;11.816;2022-12-11T00:06:57;24.85;;;22.55;;
4634;SDS011;2330;48.158;11.816;2022-12-11T00:09:24;26.50;;;24.02;;
4634;SDS011;2330;48.158;11.816;2022-12-11T00:11:51;25.40;;;23.10;;
4634;SDS011;2330;48.158;11.816;2022-12-11T00:14:18;25.15;;;22.95;;
4634;SDS011;2330;48.158;11.816;2022-12-11T00:16:46;26.17;;;23.65;;
4634;SDS011;2330;48.158;11.816;2022-12-11T00:19:14;25.98;;;23.65;;
4634;SDS011;2330;48.158;11.816;2022-12-11T00:21:41;27.13;;;24.73;;
4634;SDS011;2330;48.158;11.816;2022-12-11T00:24:08;25.90;;;23.50;;
4634;SDS011;2330;48.158;11.816;2022-12-11T00:26:35;24.52;;;22.30;;
4634;SDS011;2330;48.158;11.816;2022-12-11T00:29:02;26.45;;;24.05;;
4634;SDS011;2330;48.158;11.816;2022-12-11T00:31:29;25.88;;;23.67;;
4634;SDS011;2330;48.158;11.816;2022-12-11T00:33:57;25.13;;;22.83;;
4634;SDS011;2330;48.158;11.816;2022-12-11T00:36:24;25.23;;;22.92;;
4634;SDS011;2330;48.158;11.816;2022-12-11T00:38:52;24.92;;;22.58;;
4634;SDS011;2330;48.158;11.816;2022-12-11T00:41:19;27.42;;;25.05;;
4634;SDS011;2330;48.158;11.816;2022-12-11T00:43:46;24.60;;;22.33;;
4634;SDS011;2330;48.158;11.816;2022-12-11T00:46:13;24.55;;;22.35;;
4634;SDS011;2330;48.158;11.816;2022-12-11T00:48:40;25.33;;;23.08;;
4634;SDS011;2330;48.158;11.816;2022-12-11T00:51:07;24.60;;;22.42;;
4634;SDS011;2330;48.158;11.816;2022-12-11T00:53:35;24.85;;;22.65;;
4634;SDS011;2330;48.158;11.816;2022-12-11T00:56:07;23.88;;;21.88;;
4634;SDS011;2330;48.158;11.816;2022-12-11T00:58:38;24.20;;;22.10;;
4634;SDS011;2330;48.158;11.816;2022-12-11T01:01:09;26.05;;;23.65;;
4634;SDS011;2330;48.158;11.816;2022-12-11T01:03:38;24.20;;;22.08;;
4634;SDS011;2330;48.158;11.816;2022-12-11T01:06:05;24.50;;;22.42;;
4634;SDS011;2330;48.158;11.816;2022-12-11T01:08:33;25.55;;;23.27;;
4634;SDS011;2330;48.158;11.816;2022-12-11T01:11:04;23.60;;;21.40;;
4634;SDS011;2330;48.158;11.816;2022-12-11T01:13:34;22.15;;;20.15;;
4634;SDS011;2330;48.158;11.816;2022-12-11T01:16:08;23.55;;;21.50;;
4634;SDS011;2330;48.158;11.816;2022-12-11T01:18:38;22.63;;;20.63;;
4634;SDS011;2330;48.158;11.816;2022-12-11T01:21:06;21.00;;;19.15;;
4634;SDS011;2330;48.158;11.816;2022-12-11T01:23:34;23.33;;;21.23;;
4634;SDS011;2330;48.158;11.816;2022-12-11T01:26:08;21.63;;;19.70;;
4634;SDS011;2330;48.158;11.816;2022-12-11T01:28:36;23.40;;;21.40;;
4634;SDS011;2330;48.158;11.816;2022-12-11T01:31:07;22.70;;;20.60;;
4634;SDS011;2330;48.158;11.816;2022-12-11T01:33:35;22.92;;;20.92;;
4634;SDS011;2330;48.158;11.816;2022-12-11T01:36:09;25.90;;;23.52;;
4634;SDS011;2330;48.158;11.816;2022-12-11T01:38:39;24.20;;;22.00;;
4634;SDS011;2330;48.158;11.816;2022-12-11T01:41:06;23.70;;;21.70;;
4634;SDS011;2330;48.158;11.816;2022-12-11T01:43:35;24.23;;;22.02;;
4634;SDS011;2330;48.158;11.816;2022-12-11T01:46:20;22.95;;;20.85;;
4634;SDS011;2330;48.158;11.816;2022-12-11T01:48:47;22.95;;;20.90;;
4634;SDS011;2330;48.158;11.816;2022-12-11T01:51:14;22.40;;;20.30;;
4634;SDS011;2330;48.158;11.816;2022-12-11T01:53:50;22.13;;;20.23;;
4634;SDS011;2330;48.158;11.816;2022-12-11T01:56:24;22.38;;;20.38;;
4634;SDS011;2330;48.158;11.816;2022-12-11T01:58:53;21.65;;;19.73;;
4634;SDS011;2330;48.158;11.816;2022-12-11T02:01:30;19.65;;;17.95;;
4634;SDS011;2330;48.158;11.816;2022-12-11T02:04:16;19.48;;;17.73;;
4634;SDS011;2330;48.158;11.816;2022-12-11T02:06:46;18.85;;;17.25;;
4634;SDS011;2330;48.158;11.816;2022-12-11T02:09:16;18.65;;;17.05;;
4634;SDS011;2330;48.158;11.816;2022-12-11T02:14:27;19.85;;;17.98;;
4634;SDS011;2330;48.158;11.816;2022-12-11T02:17:20;19.08;;;17.58;;
4634;SDS011;2330;48.158;11.816;2022-12-11T02:20:24;18.58;;;17.05;;
4634;SDS011;2330;48.158;11.816;2022-12-11T02:34:02;19.08;;;17.48;;
4634;SDS011;2330;48.158;11.816;2022-12-11T02:36:49;18.75;;;17.15;;
4634;SDS011;2330;48.158;11.816;2022-12-11T02:39:20;16.98;;;15.55;;
4634;SDS011;2330;48.158;11.816;2022-12-11T02:41:49;18.30;;;16.80;;
4634;SDS011;2330;48.158;11.816;2022-12-11T02:44:18;18.17;;;16.55;;
4634;SDS011;2330;48.158;11.816;2022-12-11T02:46:49;18.70;;;17.20;;
4634;SDS011;2330;48.158;11.816;2022-12-11T02:49:18;17.52;;;16.13;;
4634;SDS011;2330;48.158;11.816;2022-12-11T02:51:46;18.90;;;17.40;;
4634;SDS011;2330;48.158;11.816;2022-12-11T02:54:20;18.30;;;16.80;;
4634;SDS011;2330;48.158;11.816;2022-12-11T02:56:54;18.55;;;17.05;;
4634;SDS011;2330;48.158;11.816;2022-12-11T02:59:28;17.45;;;16.05;;
4634;SDS011;2330;48.158;11.816;2022-12-11T03:02:00;18.58;;;16.88;;
4634;SDS011;2330;48.158;11.816;2022-12-11T03:04:28;17.65;;;16.17;;
4634;SDS011;2330;48.158;11.816;2022-12-11T03:06:57;17.98;;;16.58;;
4634;SDS011;2330;48.158;11.816;2022-12-11T03:09:39;17.85;;;16.45;;
4634;SDS011;2330;48.158;11.816;2022-12-11T03:12:11;19.65;;;18.05;;
4634;SDS011;2330;48.158;11.816;2022-12-11T03:14:42;18.10;;;16.70;;
4634;SDS011;2330;48.158;11.816;2022-12-11T03:17:26;19.08;;;17.58;;
4634;SDS011;2330;48.158;11.816;2022-12-11T03:23:03;17.55;;;16.15;;
4634;SDS011;2330;48.158;11.816;2022-12-11T03:28:20;18.95;;;17.45;;
4634;SDS011;2330;48.158;11.816;2022-12-11T03:30:55;17.40;;;15.90;;
4634;SDS011;2330;48.158;11.816;2022-12-11T03:33:25;16.65;;;15.30;;
4634;SDS011;2330;48.158;11.816;2022-12-11T03:36:05;15.70;;;14.50;;
4634;SDS011;2330;48.158;11.816;2022-12-11T03:41:20;17.05;;;15.63;;
4634;SDS011;2330;48.158;11.816;2022-12-11T03:43:50;15.25;;;14.05;;
4634;SDS011;2330;48.158;11.816;2022-12-11T03:46:20;15.77;;;14.55;;
4634;SDS011;2330;48.158;11.816;2022-12-11T03:48:50;14.70;;;13.50;;
4634;SDS011;2330;48.158;11.816;2022-12-11T03:51:18;14.90;;;13.70;;
4634;SDS011;2330;48.158;11.816;2022-12-11T03:53:46;14.82;;;13.63;;
4634;SDS011;2330;48.158;11.816;2022-12-11T03:56:13;14.20;;;13.10;;
4634;SDS011;2330;48.158;11.816;2022-12-11T03:58:43;15.55;;;14.25;;
4634;SDS011;2330;48.158;11.816;2022-12-11T04:01:10;15.13;;;13.93;;
4634;SDS011;2330;48.158;11.816;2022-12-11T04:03:37;14.75;;;13.65;;
4634;SDS011;2330;48.158;11.816;2022-12-11T04:06:04;14.60;;;13.50;;
4634;SDS011;2330;48.158;11.816;2022-12-11T04:08:31;14.40;;;13.30;;
4634;SDS011;2330;48.158;11.816;2022-12-11T04:10:58;14.00;;;12.80;;
4634;SDS011;2330;48.158;11.816;2022-12-11T04:13:43;12.85;;;11.85;;
4634;SDS011;2330;48.158;11.816;2022-12-11T04:16:10;13.20;;;12.20;;
4634;SDS011;2330;48.158;11.816;2022-12-11T04:18:37;12.93;;;11.93;;
4634;SDS011;2330;48.158;11.816;2022-12-11T04:21:23;12.48;;;11.55;;
4634;SDS011;2330;48.158;11.816;2022-12-11T04:24:08;13.40;;;12.20;;
4634;SDS011;2330;48.158;11.816;2022-12-11T04:26:45;12.05;;;11.15;;
4634;SDS011;2330;48.158;11.816;2022-12-11T04:29:13;12.43;;;11.48;;
4634;SDS011;2330;48.158;11.816;2022-12-11T04:31:40;11.88;;;10.98;;
4634;SDS011;2330;48.158;11.816;2022-12-11T04:34:06;13.05;;;12.05;;
4634;SDS011;2330;48.158;11.816;2022-12-11T04:36:34;12.25;;;11.35;;
4634;SDS011;2330;48.158;11.816;2022-12-11T04:39:01;12.57;;;11.57;;
4634;SDS011;2330;48.158;11.816;2022-12-11T04:41:28;12.90;;;11.90;;
4634;SDS011;2330;48.158;11.816;2022-12-11T04:43:55;13.13;;;12.13;;
4634;SDS011;2330;48.158;11.816;2022-12-11T04:46:22;12.20;;;11.20;;
4634;SDS011;2330;48.158;11.816;2022-12-11T04:48:50;14.90;;;13.73;;
4634;SDS011;2330;48.158;11.816;2022-12-11T04:51:23;14.15;;;13.05;;
4634;SDS011;2330;48.158;11.816;2022-12-11T04:53:50;12.90;;;12.00;;
4634;SDS011;2330;48.158;11.816;2022-12-11T04:56:17;12.18;;;11.27;;
4634;SDS011;2330;48.158;11.816;2022-12-11T04:58:44;14.63;;;13.40;;
4634;SDS011;2330;48.158;11.816;2022-12-11T05:01:15;13.45;;;12.40;;
4634;SDS011;2330;48.158;11.816;2022-12-11T05:03:45;13.43;;;12.43;;
4634;SDS011;2330;48.158;11.816;2022-12-11T05:06:12;15.90;;;14.70;;
4634;SDS011;2330;48.158;11.816;2022-12-11T05:08:40;16.15;;;14.88;;
4634;SDS011;2330;48.158;11.816;2022-12-11T05:11:09;16.75;;;15.45;;
4634;SDS011;2330;48.158;11.816;2022-12-11T05:13:37;13.40;;;12.40;;
4634;SDS011;2330;48.158;11.816;2022-12-11T05:16:04;15.60;;;14.32;;
4634;SDS011;2330;48.158;11.816;2022-12-11T05:18:32;12.65;;;11.65;;
4634;SDS011;2330;48.158;11.816;2022-12-11T05:21:00;13.35;;;12.32;;
4634;SDS011;2330;48.158;11.816;2022-12-11T05:23:29;12.65;;;11.68;;
4634;SDS011;2330;48.158;11.816;2022-12-11T05:26:00;14.13;;;12.93;;
4634;SDS011;2330;48.158;11.816;2022-12-11T05:28:29;12.75;;;11.80;;
4634;SDS011;2330;48.158;11.816;2022-12-11T05:30:58;13.95;;;12.95;;
4634;SDS011;2330;48.158;11.816;2022-12-11T05:33:28;13.45;;;12.45;;
4634;SDS011;2330;48.158;11.816;2022-12-11T05:35:55;13.10;;;12.13;;
4634;SDS011;2330;48.158;11.816;2022-12-11T05:38:22;12.57;;;11.65;;
4634;SDS011;2330;48.158;11.816;2022-12-11T05:40:56;12.90;;;11.95;;
4634;SDS011;2330;48.158;11.816;2022-12-11T05:43:32;11.20;;;10.30;;
4634;SDS011;2330;48.158;11.816;2022-12-11T05:46:07;11.90;;;11.00;;
4634;SDS011;2330;48.158;11.816;2022-12-11T05:48:36;11.85;;;10.75;;
4634;SDS011;2330;48.158;11.816;2022-12-11T05:51:04;11.55;;;10.55;;
4634;SDS011;2330;48.158;11.816;2022-12-11T05:53:32;11.45;;;10.55;;
4634;SDS011;2330;48.158;11.816;2022-12-11T05:56:02;12.25;;;11.25;;
4634;SDS011;2330;48.158;11.816;2022-12-11T05:58:30;11.50;;;10.60;;
4634;SDS011;2330;48.158;11.816;2022-12-11T06:00:57;11.23;;;10.43;;
4634;SDS011;2330;48.158;11.816;2022-12-11T06:03:25;11.15;;;10.25;;
4634;SDS011;2330;48.158;11.816;2022-12-11T06:05:52;10.05;;;9.35;;
4634;SDS011;2330;48.158;11.816;2022-12-11T06:08:19;12.07;;;11.05;;
4634;SDS011;2330;48.158;11.816;2022-12-11T06:10:49;10.50;;;9.60;;
4634;SDS011;2330;48.158;11.816;2022-12-11T06:13:16;10.30;;;9.50;;
4634;SDS011;2330;48.158;11.816;2022-12-11T06:15:42;10.70;;;9.80;;
4634;SDS011;2330;48.158;11.816;2022-12-11T06:18:10;10.75;;;9.82;;
4634;SDS011;2330;48.158;11.816;2022-12-11T06:20:36;11.90;;;11.05;;
4634;SDS011;2330;48.158;11.816;2022-12-11T06:23:04;18.92;;;17.23;;
4634;SDS011;2330;48.158;11.816;2022-12-11T06:25:31;16.38;;;14.93;;
4634;SDS011;2330;48.158;11.816;2022-12-11T06:27:58;12.68;;;11.63;;
4634;SDS011;2330;48.158;11.816;2022-12-11T06:30:25;10.93;;;10.02;;
4634;SDS011;2330;48.158;11.816;2022-12-11T06:33:04;9.85;;;9.07;;
4634;SDS011;2330;48.158;11.816;2022-12-11T06:35:35;10.00;;;9.20;;
4634;SDS011;2330;48.158;11.816;2022-12-11T06:38:08;10.82;;;9.95;;
4634;SDS011;2330;48.158;11.816;2022-12-11T06:40:36;10.05;;;9.30;;
4634;SDS011;2330;48.158;11.816;2022-12-11T06:43:03;9.57;;;8.85;;
4634;SDS011;2330;48.158;11.816;2022-12-11T06:45:30;10.07;;;9.27;;
4634;SDS011;2330;48.158;11.816;2022-12-11T06:47:57;9.43;;;8.73;;
4634;SDS011;2330;48.158;11.816;2022-12-11T06:50:24;9.25;;;8.55;;
4634;SDS011;2330;48.158;11.816;2022-12-11T06:52:54;9.35;;;8.65;;
4634;SDS011;2330;48.158;11.816;2022-12-11T06:55:21;8.90;;;8.20;;
4634;SDS011;2330;48.158;11.816;2022-12-11T06:57:48;10.50;;;9.73;;
4634;SDS011;2330;48.158;11.816;2022-12-11T07:00:15;9.43;;;8.73;;
4634;SDS011;2330;48.158;11.816;2022-12-11T07:02:42;9.38;;;8.77;;
4634;SDS011;2330;48.158;11.816;2022-12-11T07:05:09;9.40;;;8.70;;
4634;SDS011;2330;48.158;11.816;2022-12-11T07:07:36;9.85;;;9.13;;
4634;SDS011;2330;48.158;11.816;2022-12-11T07:10:03;10.20;;;9.40;;
4634;SDS011;2330;48.158;11.816;2022-12-11T07:12:34;12.55;;;11.65;;
4634;SDS011;2330;48.158;11.816;2022-12-11T07:15:01;16.83;;;15.52;;
4634;SDS011;2330;48.158;11.816;2022-12-11T07:17:29;19.08;;;17.52;;
4634;SDS011;2330;48.158;11.816;2022-12-11T07:19:56;16.75;;;15.20;;
4634;SDS011;2330;48.158;11.816;2022-12-11T07:22:22;13.65;;;12.45;;
4634;SDS011;2330;48.158;11.816;2022-12-11T07:24:49;11.52;;;10.63;;
4634;SDS011;2330;48.158;11.816;2022-12-11T07:27:16;16.23;;;14.90;;
4634;SDS011;2330;48.158;11.816;2022-12-11T07:29:43;15.70;;;14.43;;
4634;SDS011;2330;48.158;11.816;2022-12-11T07:32:10;14.90;;;13.55;;
4634;SDS011;2330;48.158;11.816;2022-12-11T07:34:37;10.80;;;9.90;;
4634;SDS011;2330;48.158;11.816;2022-12-11T07:37:04;9.98;;;9.27;;
4634;SDS011;2330;48.158;11.816;2022-12-11T07:39:31;10.40;;;9.60;;
4634;SDS011;2330;48.158;11.816;2022-12-11T07:41:58;10.45;;;9.45;;
4634;SDS011;2330;48.158;11.816;2022-12-11T07:44:25;10.55;;;9.75;;
4634;SDS011;2330;48.158;11.816;2022-12-11T07:46:51;12.25;;;11.15;;
4634;SDS011;2330;48.158;11.816;2022-12-11T07:49:18;13.30;;;11.90;;
4634;SDS011;2330;48.158;11.816;2022-12-11T07:51:45;11.80;;;10.70;;
4634;SDS011;2330;48.158;11.816;2022-12-11T07:54:12;11.20;;;10.40;;
4634;SDS011;2330;48.158;11.816;2022-12-11T07:56:42;11.35;;;10.35;;
4634;SDS011;2330;48.158;11.816;2022-12-11T07:59:14;11.25;;;10.30;;
4634;SDS011;2330;48.158;11.816;2022-12-11T08:01:42;10.90;;;10.05;;
4634;SDS011;2330;48.158;11.816;2022-12-11T08:04:10;12.10;;;11.10;;
4634;SDS011;2330;48.158;11.816;2022-12-11T08:06:38;11.65;;;10.65;;
4634;SDS011;2330;48.158;11.816;2022-12-11T08:09:06;11.20;;;10.30;;
4634;SDS011;2330;48.158;11.816;2022-12-11T08:11:35;12.32;;;11.38;;
4634;SDS011;2330;48.158;11.816;2022-12-11T08:14:02;12.27;;;11.27;;
4634;SDS011;2330;48.158;11.816;2022-12-11T08:16:31;12.70;;;11.50;;
4634;SDS011;2330;48.158;11.816;2022-12-11T08:18:58;13.48;;;12.30;;
4634;SDS011;2330;48.158;11.816;2022-12-11T08:21:25;14.80;;;13.25;;
4634;SDS011;2330;48.158;11.816;2022-12-11T08:23:53;14.10;;;13.00;;
4634;SDS011;2330;48.158;11.816;2022-12-11T08:26:22;14.25;;;13.15;;
4634;SDS011;2330;48.158;11.816;2022-12-11T08:28:51;15.40;;;14.00;;
4634;SDS011;2330;48.158;11.816;2022-12-11T08:31:19;13.48;;;12.48;;
4634;SDS011;2330;48.158;11.816;2022-12-11T08:33:46;13.73;;;12.60;;
4634;SDS011;2330;48.158;11.816;2022-12-11T08:36:15;15.55;;;14.30;;
4634;SDS011;2330;48.158;11.816;2022-12-11T08:38:46;14.82;;;13.60;;
4634;SDS011;2330;48.158;11.816;2022-12-11T08:43:44;16.90;;;15.43;;
4634;SDS011;2330;48.158;11.816;2022-12-11T08:46:12;17.35;;;15.85;;
4634;SDS011;2330;48.158;11.816;2022-12-11T08:48:39;16.38;;;14.98;;
4634;SDS011;2330;48.158;11.816;2022-12-11T08:51:09;15.60;;;14.30;;
4634;SDS011;2330;48.158;11.816;2022-12-11T08:53:39;16.30;;;14.80;;
4634;SDS011;2330;48.158;11.816;2022-12-11T08:56:07;16.67;;;15.30;;
4634;SDS011;2330;48.158;11.816;2022-12-11T08:58:38;15.68;;;14.38;;
4634;SDS011;2330;48.158;11.816;2022-12-11T09:01:09;17.35;;;15.85;;
4634;SDS011;2330;48.158;11.816;2022-12-11T09:03:44;15.43;;;14.20;;
4634;SDS011;2330;48.158;11.816;2022-12-11T09:06:12;17.52;;;16.13;;
4634;SDS011;2330;48.158;11.816;2022-12-11T09:08:41;15.63;;;14.32;;
4634;SDS011;2330;48.158;11.816;2022-12-11T09:11:18;16.70;;;15.32;;
4634;SDS011;2330;48.158;11.816;2022-12-11T09:13:48;17.83;;;16.08;;
4634;SDS011;2330;48.158;11.816;2022-12-11T09:16:16;16.50;;;15.10;;
4634;SDS011;2330;48.158;11.816;2022-12-11T09:18:45;17.27;;;15.82;;
4634;SDS011;2330;48.158;11.816;2022-12-11T09:21:14;16.80;;;15.40;;
4634;SDS011;2330;48.158;11.816;2022-12-11T09:23:43;17.20;;;15.70;;
4634;SDS011;2330;48.158;11.816;2022-12-11T09:26:12;17.63;;;16.13;;
4634;SDS011;2330;48.158;11.816;2022-12-11T09:28:40;19.95;;;18.05;;
4634;SDS011;2330;48.158;11.816;2022-12-11T09:31:13;16.48;;;15.07;;
4634;SDS011;2330;48.158;11.816;2022-12-11T09:33:41;16.05;;;14.70;;
4634;SDS011;2330;48.158;11.816;2022-12-11T09:36:09;15.02;;;13.85;;
4634;SDS011;2330;48.158;11.816;2022-12-11T09:38:37;14.50;;;13.30;;
4634;SDS011;2330;48.158;11.816;2022-12-11T09:46:22;17.23;;;15.75;;
4634;SDS011;2330;48.158;11.816;2022-12-11T09:48:54;16.67;;;15.23;;
4634;SDS011;2330;48.158;11.816;2022-12-11T09:54:10;15.18;;;13.95;;
4634;SDS011;2330;48.158;11.816;2022-12-11T09:56:55;14.63;;;13.43;;
4634;SDS011;2330;48.158;11.816;2022-12-11T10:00:00;17.75;;;16.15;;
4634;SDS011;2330;48.158;11.816;2022-12-11T10:05:51;13.95;;;12.48;;
4634;SDS011;2330;48.158;11.816;2022-12-11T10:19:02;13.93;;;12.80;;
4634;SDS011;2330;48.158;11.816;2022-12-11T10:21:32;14.25;;;13.05;;
4634;SDS011;2330;48.158;11.816;2022-12-11T10:24:09;12.70;;;11.70;;
4634;SDS011;2330;48.158;11.816;2022-12-11T10:27:12;11.60;;;10.70;;
4634;SDS011;2330;48.158;11.816;2022-12-11T10:29:48;12.00;;;11.05;;
4634;SDS011;2330;48.158;11.816;2022-12-11T10:32:27;12.18;;;11.27;;
4634;SDS011;2330;48.158;11.816;2022-12-11T10:35:08;11.20;;;10.25;;
4634;SDS011;2330;48.158;11.816;2022-12-11T10:37:58;10.68;;;9.88;;
4634;SDS011;2330;48.158;11.816;2022-12-11T10:40:50;10.82;;;10.00;;
4634;SDS011;2330;48.158;11.816;2022-12-11T10:43:40;11.65;;;10.65;;
4634;SDS011;2330;48.158;11.816;2022-12-11T10:46:19;11.18;;;10.27;;
4634;SDS011;2330;48.158;11.816;2022-12-11T10:48:51;10.43;;;9.60;;
4634;SDS011;2330;48.158;11.816;2022-12-11T10:51:20;11.27;;;10.32;;
4634;SDS011;2330;48.158;11.816;2022-12-11T10:53:52;20.50;;;18.60;;
4634;SDS011;2330;48.158;11.816;2022-12-11T10:56:26;14.38;;;13.07;;
4634;SDS011;2330;48.158;11.816;2022-12-11T10:58:55;12.60;;;11.35;;
4634;SDS011;2330;48.158;11.816;2022-12-11T11:01:23;11.57;;;10.63;;
4634;SDS011;2330;48.158;11.816;2022-12-11T11:03:57;13.43;;;12.23;;
4634;SDS011;2330;48.158;11.816;2022-12-11T11:06:31;17.90;;;16.35;;
4634;SDS011;2330;48.158;11.816;2022-12-11T11:08:59;11.23;;;10.32;;
4634;SDS011;2330;48.158;11.816;2022-12-11T11:11:31;14.65;;;13.25;;
4634;SDS011;2330;48.158;11.816;2022-12-11T11:16:39;12.43;;;11.20;;
4634;SDS011;2330;48.158;11.816;2022-12-11T11:19:13;10.88;;;10.07;;
4634;SDS011;2330;48.158;11.816;2022-12-11T11:21:55;11.77;;;10.77;;
4634;SDS011;2330;48.158;11.816;2022-12-11T11:27:00;13.57;;;10.57;;
4634;SDS011;2330;48.158;11.816;2022-12-11T11:29:38;11.10;;;10.27;;
4634;SDS011;2330;48.158;11.816;2022-12-11T11:32:14;11.73;;;10.82;;
4634;SDS011;2330;48.158;11.816;2022-12-11T11:34:48;10.50;;;9.55;;
4634;SDS011;2330;48.158;11.816;2022-12-11T11:37:21;11.85;;;10.95;;
4634;SDS011;2330;48.158;11.816;2022-12-11T11:39:51;13.48;;;12.18;;
4634;SDS011;2330;48.158;11.816;2022-12-11T11:42:25;9.82;;;9.13;;
4634;SDS011;2330;48.158;11.816;2022-12-11T11:45:08;10.65;;;9.85;;
4634;SDS011;2330;48.158;11.816;2022-12-11T11:47:54;10.65;;;9.85;;
4634;SDS011;2330;48.158;11.816;2022-12-11T11:50:44;13.38;;;12.25;;
4634;SDS011;2330;48.158;11.816;2022-12-11T11:55:56;12.35;;;11.35;;
4634;SDS011;2330;48.158;11.816;2022-12-11T12:01:15;13.45;;;12.23;;
4634;SDS011;2330;48.158;11.816;2022-12-11T12:03:44;12.55;;;11.25;;
4634;SDS011;2330;48.158;11.816;2022-12-11T12:06:17;17.85;;;16.35;;
4634;SDS011;2330;48.158;11.816;2022-12-11T12:14:48;12.85;;;11.77;;
4634;SDS011;2330;48.158;11.816;2022-12-11T12:23:24;9.70;;;9.00;;
4634;SDS011;2330;48.158;11.816;2022-12-11T12:26:23;13.05;;;11.07;;
4634;SDS011;2330;48.158;11.816;2022-12-11T12:28:58;10.32;;;9.50;;
4634;SDS011;2330;48.158;11.816;2022-12-11T12:31:43;11.02;;;10.13;;
4634;SDS011;2330;48.158;11.816;2022-12-11T12:45:28;10.30;;;9.40;;
4634;SDS011;2330;48.158;11.816;2022-12-11T12:48:18;10.75;;;9.85;;
4634;SDS011;2330;48.158;11.816;2022-12-11T12:50:49;10.27;;;9.45;;
4634;SDS011;2330;48.158;11.816;2022-12-11T12:53:22;16.70;;;15.20;;
4634;SDS011;2330;48.158;11.816;2022-12-11T12:55:51;10.13;;;9.25;;
4634;SDS011;2330;48.158;11.816;2022-12-11T12:58:23;11.05;;;9.90;;
4634;SDS011;2330;48.158;11.816;2022-12-11T13:00:52;9.82;;;9.13;;
4634;SDS011;2330;48.158;11.816;2022-12-11T13:03:24;11.40;;;10.38;;
4634;SDS011;2330;48.158;11.816;2022-12-11T13:06:00;12.57;;;11.50;;
4634;SDS011;2330;48.158;11.816;2022-12-11T13:08:39;11.60;;;10.57;;
4634;SDS011;2330;48.158;11.816;2022-12-11T13:11:11;10.48;;;9.57;;
4634;SDS011;2330;48.158;11.816;2022-12-11T13:13:41;10.02;;;9.20;;
4634;SDS011;2330;48.158;11.816;2022-12-11T13:18:44;7.72;;;7.22;;
4634;SDS011;2330;48.158;11.816;2022-12-11T13:21:34;7.55;;;6.93;;
4634;SDS011;2330;48.158;11.816;2022-12-11T13:26:45;7.75;;;7.25;;
4634;SDS011;2330;48.158;11.816;2022-12-11T13:29:36;7.53;;;6.82;;
4634;SDS011;2330;48.158;11.816;2022-12-11T13:34:38;6.20;;;5.78;;
4634;SDS011;2330;48.158;11.816;2022-12-11T13:40:02;6.95;;;6.45;;
4634;SDS011;2330;48.158;11.816;2022-12-11T13:42:36;7.78;;;7.10;;
4634;SDS011;2330;48.158;11.816;2022-12-11T13:45:20;7.03;;;6.40;;
4634;SDS011;2330;48.158;11.816;2022-12-11T13:47:51;8.13;;;7.43;;
4634;SDS011;2330;48.158;11.816;2022-12-11T13:50:20;8.38;;;7.75;;
4634;SDS011;2330;48.158;11.816;2022-12-11T13:52:59;8.48;;;7.88;;
4634;SDS011;2330;48.158;11.816;2022-12-11T13:55:29;8.52;;;7.88;;
4634;SDS011;2330;48.158;11.816;2022-12-11T13:57:58;7.47;;;6.88;;
4634;SDS011;2330;48.158;11.816;2022-12-11T14:00:26;8.75;;;7.97;;
4634;SDS011;2330;48.158;11.816;2022-12-11T14:02:56;7.93;;;7.15;;
4634;SDS011;2330;48.158;11.816;2022-12-11T14:05:26;7.60;;;7.10;;
4634;SDS011;2330;48.158;11.816;2022-12-11T14:07:55;8.23;;;7.63;;
4634;SDS011;2330;48.158;11.816;2022-12-11T14:10:29;9.48;;;6.90;;
4634;SDS011;2330;48.158;11.816;2022-12-11T14:15:56;8.77;;;7.10;;
4634;SDS011;2330;48.158;11.816;2022-12-11T14:18:24;9.18;;;8.38;;
4634;SDS011;2330;48.158;11.816;2022-12-11T14:20:55;9.20;;;8.40;;
4634;SDS011;2330;48.158;11.816;2022-12-11T14:23:25;7.82;;;7.25;;
4634;SDS011;2330;48.158;11.816;2022-12-11T14:28:22;7.47;;;6.88;;
4634;SDS011;2330;48.158;11.816;2022-12-11T14:30:54;7.50;;;6.80;;
4634;SDS011;2330;48.158;11.816;2022-12-11T14:33:26;8.45;;;7.75;;
4634;SDS011;2330;48.158;11.816;2022-12-11T14:35:57;8.23;;;7.63;;
4634;SDS011;2330;48.158;11.816;2022-12-11T14:38:28;8.20;;;7.55;;
4634;SDS011;2330;48.158;11.816;2022-12-11T14:41:24;7.20;;;6.70;;
4634;SDS011;2330;48.158;11.816;2022-12-11T14:44:13;7.82;;;7.18;;
4634;SDS011;2330;48.158;11.816;2022-12-11T14:46:45;8.25;;;7.50;;
4634;SDS011;2330;48.158;11.816;2022-12-11T14:51:47;14.63;;;13.02;;
4634;SDS011;2330;48.158;11.816;2022-12-11T14:54:17;7.53;;;6.93;;
4634;SDS011;2330;48.158;11.816;2022-12-11T14:57:01;17.83;;;15.45;;
4634;SDS011;2330;48.158;11.816;2022-12-11T14:59:34;24.85;;;21.63;;
4634;SDS011;2330;48.158;11.816;2022-12-11T15:05:18;9.98;;;9.07;;
4634;SDS011;2330;48.158;11.816;2022-12-11T15:07:58;9.63;;;8.77;;
4634;SDS011;2330;48.158;11.816;2022-12-11T15:10:35;7.63;;;6.95;;
4634;SDS011;2330;48.158;11.816;2022-12-11T15:13:06;14.00;;;11.77;;
4634;SDS011;2330;48.158;11.816;2022-12-11T15:15:42;18.20;;;15.60;;
4634;SDS011;2330;48.158;11.816;2022-12-11T15:18:21;22.73;;;18.35;;
4634;SDS011;2330;48.158;11.816;2022-12-11T15:21:00;69.93;;;45.88;;
4634;SDS011;2330;48.158;11.816;2022-12-11T15:23:29;23.13;;;18.30;;
4634;SDS011;2330;48.158;11.816;2022-12-11T15:25:57;27.25;;;19.23;;
4634;SDS011;2330;48.158;11.816;2022-12-11T15:30:56;56.55;;;41.58;;
4634;SDS011;2330;48.158;11.816;2022-12-11T15:33:25;29.10;;;24.80;;
4634;SDS011;2330;48.158;11.816;2022-12-11T15:36:03;8.95;;;8.10;;
4634;SDS011;2330;48.158;11.816;2022-12-11T15:41:00;10.18;;;9.32;;
4634;SDS011;2330;48.158;11.816;2022-12-11T15:43:28;9.75;;;8.95;;
4634;SDS011;2330;48.158;11.816;2022-12-11T15:46:00;8.38;;;7.57;;
4634;SDS011;2330;48.158;11.816;2022-12-11T15:48:28;12.48;;;11.27;;
4634;SDS011;2330;48.158;11.816;2022-12-11T15:50:55;9.65;;;8.85;;
4634;SDS011;2330;48.158;11.816;2022-12-11T15:53:21;7.57;;;7.07;;
4634;SDS011;2330;48.158;11.816;2022-12-11T15:55:48;7.15;;;6.65;;
4634;SDS011;2330;48.158;11.816;2022-12-11T15:58:20;8.30;;;7.60;;
4634;SDS011;2330;48.158;11.816;2022-12-11T16:00:48;7.88;;;7.28;;
4634;SDS011;2330;48.158;11.816;2022-12-11T16:03:16;8.45;;;7.85;;
4634;SDS011;2330;48.158;11.816;2022-12-11T16:05:44;10.32;;;9.00;;
4634;SDS011;2330;48.158;11.816;2022-12-11T16:08:12;11.60;;;10.70;;
4634;SDS011;2330;48.158;11.816;2022-12-11T16:10:41;9.77;;;8.98;;
4634;SDS011;2330;48.158;11.816;2022-12-11T16:13:09;11.13;;;10.25;;
4634;SDS011;2330;48.158;11.816;2022-12-11T16:15:38;9.27;;;8.50;;
4634;SDS011;2330;48.158;11.816;2022-12-11T16:18:08;9.75;;;8.95;;
4634;SDS011;2330;48.158;11.816;2022-12-11T16:20:37;26.00;;;22.75;;
4634;SDS011;2330;48.158;11.816;2022-12-11T16:23:06;17.13;;;15.52;;
4634;SDS011;2330;48.158;11.816;2022-12-11T16:25:35;21.67;;;18.80;;
4634;SDS011;2330;48.158;11.816;2022-12-11T16:28:02;20.10;;;18.10;;
4634;SDS011;2330;48.158;11.816;2022-12-11T16:30:30;13.45;;;12.25;;
4634;SDS011;2330;48.158;11.816;2022-12-11T16:32:59;11.10;;;10.10;;
4634;SDS011;2330;48.158;11.816;2022-12-11T16:35:27;10.10;;;9.30;;
4634;SDS011;2330;48.158;11.816;2022-12-11T16:37:54;9.30;;;8.60;;
4634;SDS011;2330;48.158;11.816;2022-12-11T16:40:21;9.77;;;8.90;;
4634;SDS011;2330;48.158;11.816;2022-12-11T16:42:49;9.85;;;9.05;;
4634;SDS011;2330;48.158;11.816;2022-12-11T16:45:22;9.40;;;8.70;;
4634;SDS011;2330;48.158;11.816;2022-12-11T16:47:51;10.35;;;9.55;;
4634;SDS011;2330;48.158;11.816;2022-12-11T16:50:18;10.45;;;9.60;;
4634;SDS011;2330;48.158;11.816;2022-12-11T16:52:45;10.88;;;10.07;;